PWSweather.com
Personal Weather Stations
Station Observations
LOBIOS
Galicia, LobiosES

GaliciaLobiosES

Lat: 41.895, Lon: -8.091667

Elevation: 1597

Station Type: Automática/Davis Vantage Pro2 Plus

Latest ConditionsUpdated 3:30:02 PM GMT+01:01 Tuesday, Jul 23, 2019
Currently Today's Max Today's Min Today's Average
Temperature 85.6°F29.8°C 86.5°F30.3°C 64.0°F17.8°C 72.8°F22.7°C
Dew Point 61.9°F16.6°C 68.1°F20.1°C 61.6°F16.4°C 64.1°F17.8°C
Winds 10.4 mph SW16.7 kmh SW 15.0 mph -24.1 kmh - - 5.2 mph 8.4 kmh
Wind Gusts 13.8 mph22.2 kmh 20.7 mph33.3 kmh - -
Humidity 45% 93% 45% 76%
Pressure 29.95 in1014.2 mb 29.99 in1015.6 mb 29.92 in1013.2 mb -
Precipitation - 0.02 in0.5 mm - -
Hour Temp Dew Point Humidity Winds Wind Gusts Pressure Precip Precip Rate Daily Precip Total
03:30 PM 85.6°F29.8°C 61.9°F16.6°C 45% 10.4 mph SW16.7 kmh SW 13.8 mph22.2 kmh 29.95 in1014.2 mb - 0.00 in0.0 mm 0.02 in0.5 mm
03:20 PM 85.6°F29.8°C 62.4°F16.9°C 46% 8.1 mph WSW13.0 kmh WSW 11.5 mph18.5 kmh 29.95 in1014.2 mb - 0.00 in0.0 mm 0.02 in0.5 mm
03:10 PM 85.9°F29.9°C 64.5°F18.1°C 49% 11.5 mph WSW18.5 kmh WSW 19.6 mph31.5 kmh 29.95 in1014.2 mb - 0.00 in0.0 mm 0.02 in0.5 mm
03:00 PM 85.9°F29.9°C 64.6°F18.1°C 49% 13.8 mph WSW22.2 kmh WSW 18.4 mph29.6 kmh 29.95 in1014.2 mb - 0.00 in0.0 mm 0.02 in0.5 mm
02:50 PM 86.5°F30.3°C 66.2°F19.0°C 51% 15.0 mph WSW24.1 kmh WSW 19.6 mph31.5 kmh 29.94 in1013.9 mb - 0.00 in0.0 mm 0.02 in0.5 mm
02:40 PM 86.0°F30.0°C 65.8°F18.8°C 51% 12.7 mph WSW20.4 kmh WSW 18.4 mph29.6 kmh 29.94 in1013.9 mb - 0.00 in0.0 mm 0.02 in0.5 mm
02:30 PM 86.3°F30.2°C 66.0°F18.9°C 51% 10.4 mph WSW16.7 kmh WSW 19.6 mph31.5 kmh 29.95 in1014.2 mb - 0.00 in0.0 mm 0.02 in0.5 mm
02:20 PM 86.1°F30.1°C 65.9°F18.8°C 51% 13.8 mph WSW22.2 kmh WSW 19.6 mph31.5 kmh 29.95 in1014.2 mb - 0.00 in0.0 mm 0.02 in0.5 mm
02:10 PM 86.5°F30.3°C 65.6°F18.7°C 50% 9.2 mph WSW14.8 kmh WSW 16.1 mph25.9 kmh 29.95 in1014.2 mb - 0.00 in0.0 mm 0.02 in0.5 mm
02:00 PM 86.4°F30.2°C 66.1°F18.9°C 51% 13.8 mph WSW22.2 kmh WSW 18.4 mph29.6 kmh 29.94 in1013.9 mb - 0.00 in0.0 mm 0.02 in0.5 mm
01:50 PM 86.5°F30.3°C 66.8°F19.3°C 52% 11.5 mph WSW18.5 kmh WSW 18.4 mph29.6 kmh 29.94 in1013.9 mb - 0.00 in0.0 mm 0.02 in0.5 mm
01:40 PM 86.3°F30.2°C 66.6°F19.2°C 52% 12.7 mph WSW20.4 kmh WSW 19.6 mph31.5 kmh 29.94 in1013.9 mb - 0.00 in0.0 mm 0.02 in0.5 mm
01:30 PM 86.3°F30.2°C 67.7°F19.8°C 54% 11.5 mph WSW18.5 kmh WSW 20.7 mph33.3 kmh 29.94 in1013.9 mb - 0.00 in0.0 mm 0.02 in0.5 mm
01:20 PM 85.6°F29.8°C 68.1°F20.1°C 56% 6.9 mph WSW11.1 kmh WSW 11.5 mph18.5 kmh 29.94 in1013.9 mb - 0.00 in0.0 mm 0.02 in0.5 mm
01:10 PM 85.0°F29.4°C 68.0°F20.0°C 57% 8.1 mph WSW13.0 kmh WSW 9.2 mph14.8 kmh 29.94 in1013.9 mb - 0.00 in0.0 mm 0.02 in0.5 mm
01:00 PM 83.7°F28.7°C 67.4°F19.7°C 58% 8.1 mph SW13.0 kmh SW 9.2 mph14.8 kmh 29.94 in1013.9 mb - 0.00 in0.0 mm 0.02 in0.5 mm
12:50 PM 83.1°F28.4°C 67.3°F19.6°C 59% 8.1 mph SW13.0 kmh SW 10.4 mph16.7 kmh 29.94 in1013.9 mb - 0.00 in0.0 mm 0.02 in0.5 mm
12:40 PM 82.6°F28.1°C 66.8°F19.3°C 59% 9.2 mph SW14.8 kmh SW 10.4 mph16.7 kmh 29.95 in1014.2 mb - 0.00 in0.0 mm 0.02 in0.5 mm
12:30 PM 81.3°F27.4°C 66.1°F18.9°C 60% 12.7 mph WSW20.4 kmh WSW 13.8 mph22.2 kmh 29.95 in1014.2 mb - 0.00 in0.0 mm 0.02 in0.5 mm
12:20 PM 81.4°F27.4°C 65.7°F18.7°C 59% 9.2 mph WSW14.8 kmh WSW 12.7 mph20.4 kmh 29.95 in1014.2 mb - 0.00 in0.0 mm 0.02 in0.5 mm
12:10 PM 82.0°F27.8°C 65.3°F18.5°C 57% 11.5 mph SW18.5 kmh SW 16.1 mph25.9 kmh 29.95 in1014.2 mb - 0.00 in0.0 mm 0.02 in0.5 mm
12:00 PM 82.4°F28.0°C 66.1°F18.9°C 58% 11.5 mph WSW18.5 kmh WSW 19.6 mph31.5 kmh 29.95 in1014.2 mb - 0.00 in0.0 mm 0.02 in0.5 mm
11:50 AM 82.4°F28.0°C 65.1°F18.4°C 56% 9.2 mph WSW14.8 kmh WSW 15.0 mph24.1 kmh 29.95 in1014.2 mb - 0.00 in0.0 mm 0.02 in0.5 mm
11:40 AM 81.7°F27.6°C 66.5°F19.2°C 60% 5.8 mph WSW9.3 kmh WSW 11.5 mph18.5 kmh 29.94 in1013.9 mb - 0.00 in0.0 mm 0.02 in0.5 mm
11:30 AM 81.6°F27.6°C 64.9°F18.3°C 57% 9.2 mph WSW14.8 kmh WSW 12.7 mph20.4 kmh 29.95 in1014.2 mb - 0.00 in0.0 mm 0.02 in0.5 mm
11:20 AM 82.2°F27.9°C 66.0°F18.9°C 58% 11.5 mph WSW18.5 kmh WSW 16.1 mph25.9 kmh 29.95 in1014.2 mb - 0.00 in0.0 mm 0.02 in0.5 mm
11:10 AM 81.2°F27.3°C 65.0°F18.3°C 58% 10.4 mph WSW16.7 kmh WSW 11.5 mph18.5 kmh 29.94 in1013.9 mb - 0.00 in0.0 mm 0.02 in0.5 mm
11:00 AM 80.0°F26.7°C 64.9°F18.3°C 60% 9.2 mph WSW14.8 kmh WSW 12.7 mph20.4 kmh 29.94 in1013.9 mb - 0.00 in0.0 mm 0.02 in0.5 mm
10:50 AM 78.9°F26.1°C 64.3°F17.9°C 61% 10.4 mph WSW16.7 kmh WSW 12.7 mph20.4 kmh 29.94 in1013.9 mb - 0.00 in0.0 mm 0.02 in0.5 mm
10:40 AM 78.9°F26.1°C 64.8°F18.2°C 62% 8.1 mph WSW13.0 kmh WSW 10.4 mph16.7 kmh 29.94 in1013.9 mb - 0.00 in0.0 mm 0.02 in0.5 mm
10:30 AM 79.4°F26.3°C 63.8°F17.7°C 59% 10.4 mph WSW16.7 kmh WSW 12.7 mph20.4 kmh 29.94 in1013.9 mb - 0.00 in0.0 mm 0.02 in0.5 mm
10:20 AM 79.6°F26.4°C 64.5°F18.1°C 60% 13.8 mph WSW22.2 kmh WSW 19.6 mph31.5 kmh 29.94 in1013.9 mb - 0.00 in0.0 mm 0.02 in0.5 mm
10:10 AM 78.4°F25.8°C 65.7°F18.7°C 65% 9.2 mph WSW14.8 kmh WSW 13.8 mph22.2 kmh 29.94 in1013.9 mb - 0.00 in0.0 mm 0.02 in0.5 mm
10:00 AM 76.8°F24.9°C 65.4°F18.6°C 68% 8.1 mph WSW13.0 kmh WSW 9.2 mph14.8 kmh 29.94 in1013.9 mb - 0.00 in0.0 mm 0.02 in0.5 mm
09:50 AM 75.7°F24.3°C 66.5°F19.2°C 73% 5.8 mph WSW9.3 kmh WSW 6.9 mph11.1 kmh 29.94 in1013.9 mb - 0.00 in0.0 mm 0.02 in0.5 mm
09:40 AM 74.6°F23.7°C 66.5°F19.2°C 76% 4.6 mph WSW7.4 kmh WSW 5.8 mph9.3 kmh 29.93 in1013.5 mb - 0.00 in0.0 mm 0.02 in0.5 mm
09:30 AM 73.6°F23.1°C 66.7°F19.3°C 79% 4.6 mph SW7.4 kmh SW 8.1 mph13.0 kmh 29.93 in1013.5 mb - 0.00 in0.0 mm 0.02 in0.5 mm
09:20 AM 72.4°F22.4°C 65.9°F18.8°C 80% Calm Calm 2.3 mph3.7 kmh 29.93 in1013.5 mb - 0.00 in0.0 mm 0.02 in0.5 mm
09:10 AM 72.2°F22.3°C 66.0°F18.9°C 81% 2.3 mph E3.7 kmh E 4.6 mph7.4 kmh 29.93 in1013.5 mb - 0.00 in0.0 mm 0.02 in0.5 mm
09:00 AM 71.2°F21.8°C 65.7°F18.7°C 83% 3.5 mph NE5.6 kmh NE 4.6 mph7.4 kmh 29.93 in1013.5 mb - 0.00 in0.0 mm 0.02 in0.5 mm
08:50 AM 70.2°F21.2°C 65.4°F18.6°C 85% 3.5 mph NE5.6 kmh NE 4.6 mph7.4 kmh 29.93 in1013.5 mb - 0.00 in0.0 mm 0.02 in0.5 mm
08:40 AM 69.6°F20.9°C 65.5°F18.6°C 87% 5.8 mph NE9.3 kmh NE 8.1 mph13.0 kmh 29.94 in1013.9 mb - 0.00 in0.0 mm 0.02 in0.5 mm
08:30 AM 68.3°F20.2°C 64.9°F18.3°C 89% Calm Calm 2.3 mph3.7 kmh 29.94 in1013.9 mb - 0.00 in0.0 mm 0.02 in0.5 mm
08:20 AM 67.3°F19.6°C 64.5°F18.1°C 91% Calm Calm -- 29.94 in1013.9 mb - 0.00 in0.0 mm 0.02 in0.5 mm
08:10 AM 66.3°F19.1°C 63.9°F17.7°C 92% 1.1 mph WSW1.8 kmh WSW 2.3 mph3.7 kmh 29.95 in1014.2 mb - 0.00 in0.0 mm 0.02 in0.5 mm
08:00 AM 65.3°F18.5°C 63.2°F17.3°C 93% Calm Calm -- 29.95 in1014.2 mb - 0.00 in0.0 mm 0.02 in0.5 mm
07:50 AM 64.6°F18.1°C 62.5°F16.9°C 93% Calm Calm -- 29.95 in1014.2 mb - 0.00 in0.0 mm 0.02 in0.5 mm
07:40 AM 64.2°F17.9°C 61.8°F16.6°C 92% 1.1 mph WSW1.8 kmh WSW 1.1 mph1.8 kmh 29.95 in1014.2 mb - 0.00 in0.0 mm 0.02 in0.5 mm
07:30 AM 64.0°F17.8°C 61.6°F16.4°C 92% 1.1 mph WSW1.8 kmh WSW 2.3 mph3.7 kmh 29.95 in1014.2 mb - 0.00 in0.0 mm 0.02 in0.5 mm
07:20 AM 64.0°F17.8°C 61.6°F16.4°C 92% 3.5 mph SW5.6 kmh SW 4.6 mph7.4 kmh 29.95 in1014.2 mb - 0.00 in0.0 mm 0.02 in0.5 mm
07:10 AM 64.1°F17.8°C 61.7°F16.5°C 92% 5.8 mph SW9.3 kmh SW 5.8 mph9.3 kmh 29.95 in1014.2 mb - 0.00 in0.0 mm 0.02 in0.5 mm
07:00 AM 64.4°F18.0°C 62.0°F16.7°C 92% 5.8 mph NE9.3 kmh NE 5.8 mph9.3 kmh 29.94 in1013.9 mb - 0.00 in0.0 mm 0.02 in0.5 mm
06:50 AM 64.5°F18.1°C 62.1°F16.7°C 92% Calm Calm 2.3 mph3.7 kmh 29.93 in1013.5 mb - 0.00 in0.0 mm 0.02 in0.5 mm
06:40 AM 64.5°F18.1°C 62.1°F16.7°C 92% 2.3 mph NE3.7 kmh NE 3.5 mph5.6 kmh 29.93 in1013.5 mb - 0.00 in0.0 mm 0.02 in0.5 mm
06:30 AM 64.5°F18.1°C 62.1°F16.7°C 92% 5.8 mph NE9.3 kmh NE 6.9 mph11.1 kmh 29.93 in1013.5 mb - 0.01 in0.3 mm 0.02 in0.5 mm
06:20 AM 64.5°F18.1°C 62.1°F16.7°C 92% 4.6 mph NE7.4 kmh NE 8.1 mph13.0 kmh 29.94 in1013.9 mb - 0.00 in0.0 mm 0.01 in0.3 mm
06:10 AM 64.4°F18.0°C 62.0°F16.7°C 92% 2.3 mph WNW3.7 kmh WNW 3.5 mph5.6 kmh 29.93 in1013.5 mb - 0.00 in0.0 mm 0.01 in0.3 mm
06:00 AM 64.4°F18.0°C 62.0°F16.7°C 92% 1.1 mph SW1.8 kmh SW 3.5 mph5.6 kmh 29.93 in1013.5 mb - 0.00 in0.0 mm 0.01 in0.3 mm
05:50 AM 64.5°F18.1°C 62.1°F16.7°C 92% 4.6 mph SW7.4 kmh SW 4.6 mph7.4 kmh 29.93 in1013.5 mb - 0.00 in0.0 mm 0.01 in0.3 mm
05:40 AM 64.6°F18.1°C 62.2°F16.8°C 92% Calm Calm -- 29.93 in1013.5 mb - 0.00 in0.0 mm 0.01 in0.3 mm
05:30 AM 64.8°F18.2°C 62.1°F16.7°C 91% 2.3 mph SW3.7 kmh SW 1.1 mph1.8 kmh 29.93 in1013.5 mb - 0.00 in0.0 mm 0.01 in0.3 mm
05:20 AM 65.2°F18.4°C 62.8°F17.1°C 92% 6.9 mph SW11.1 kmh SW 9.2 mph14.8 kmh 29.93 in1013.5 mb - 0.00 in0.0 mm 0.01 in0.3 mm
05:10 AM 65.4°F18.6°C 63.0°F17.2°C 92% 2.3 mph NE3.7 kmh NE 2.3 mph3.7 kmh 29.92 in1013.2 mb - 0.00 in0.0 mm 0.01 in0.3 mm
05:00 AM 65.3°F18.5°C 62.9°F17.2°C 92% Calm Calm 3.5 mph5.6 kmh 29.93 in1013.5 mb - 0.00 in0.0 mm 0.01 in0.3 mm
04:50 AM 65.4°F18.6°C 63.0°F17.2°C 92% 4.6 mph E7.4 kmh E 5.8 mph9.3 kmh 29.93 in1013.5 mb - 0.00 in0.0 mm 0.01 in0.3 mm
04:40 AM 65.3°F18.5°C 62.6°F17.0°C 91% 1.1 mph NE1.8 kmh NE 2.3 mph3.7 kmh 29.93 in1013.5 mb - 0.00 in0.0 mm 0.01 in0.3 mm
04:30 AM 65.3°F18.5°C 62.6°F17.0°C 91% 1.1 mph ENE1.8 kmh ENE 2.3 mph3.7 kmh 29.93 in1013.5 mb - 0.00 in0.0 mm 0.01 in0.3 mm
04:20 AM 65.2°F18.4°C 62.5°F16.9°C 91% 1.1 mph SW1.8 kmh SW 3.5 mph5.6 kmh 29.93 in1013.5 mb - 0.00 in0.0 mm 0.01 in0.3 mm
04:10 AM 65.3°F18.5°C 62.6°F17.0°C 91% 2.3 mph SW3.7 kmh SW 3.5 mph5.6 kmh 29.93 in1013.5 mb - 0.00 in0.0 mm 0.01 in0.3 mm
04:00 AM 65.3°F18.5°C 62.6°F17.0°C 91% 1.1 mph SW1.8 kmh SW 2.3 mph3.7 kmh 29.93 in1013.5 mb - 0.00 in0.0 mm 0.01 in0.3 mm
03:50 AM 65.3°F18.5°C 62.6°F17.0°C 91% 2.3 mph SW3.7 kmh SW 3.5 mph5.6 kmh 29.94 in1013.9 mb - 0.00 in0.0 mm 0.01 in0.3 mm
03:40 AM 65.3°F18.5°C 62.3°F16.8°C 90% Calm Calm 2.3 mph3.7 kmh 29.94 in1013.9 mb - 0.00 in0.0 mm 0.01 in0.3 mm
03:30 AM 65.5°F18.6°C 62.5°F16.9°C 90% 1.1 mph SW1.8 kmh SW 2.3 mph3.7 kmh 29.95 in1014.2 mb - 0.00 in0.0 mm 0.01 in0.3 mm
03:20 AM 65.7°F18.7°C 62.7°F17.1°C 90% 4.6 mph SSW7.4 kmh SSW 3.5 mph5.6 kmh 29.95 in1014.2 mb - 0.00 in0.0 mm 0.01 in0.3 mm
03:10 AM 65.8°F18.8°C 62.8°F17.1°C 90% Calm Calm 3.5 mph5.6 kmh 29.95 in1014.2 mb - 0.00 in0.0 mm 0.01 in0.3 mm
03:00 AM 65.8°F18.8°C 62.5°F16.9°C 89% 1.1 mph ENE1.8 kmh ENE 2.3 mph3.7 kmh 29.95 in1014.2 mb - 0.00 in0.0 mm 0.01 in0.3 mm
02:50 AM 66.0°F18.9°C 63.0°F17.2°C 90% 2.3 mph ENE3.7 kmh ENE 2.3 mph3.7 kmh 29.95 in1014.2 mb - 0.00 in0.0 mm 0.01 in0.3 mm
02:40 AM 66.2°F19.0°C 62.8°F17.1°C 89% Calm Calm 3.5 mph5.6 kmh 29.95 in1014.2 mb - 0.00 in0.0 mm 0.01 in0.3 mm
02:30 AM 66.3°F19.1°C 63.0°F17.2°C 89% Calm Calm 3.5 mph5.6 kmh 29.96 in1014.6 mb - 0.00 in0.0 mm 0.01 in0.3 mm
02:20 AM 66.5°F19.2°C 63.2°F17.3°C 89% 2.3 mph ENE3.7 kmh ENE 3.5 mph5.6 kmh 29.95 in1014.2 mb - 0.00 in0.0 mm 0.01 in0.3 mm
02:10 AM 66.5°F19.2°C 63.2°F17.3°C 89% 4.6 mph ENE7.4 kmh ENE 5.8 mph9.3 kmh 29.96 in1014.6 mb - 0.00 in0.0 mm 0.01 in0.3 mm
02:00 AM 66.8°F19.3°C 63.1°F17.3°C 88% 2.3 mph ENE3.7 kmh ENE 3.5 mph5.6 kmh 29.96 in1014.6 mb - 0.00 in0.0 mm 0.01 in0.3 mm
01:50 AM 67.0°F19.4°C 63.0°F17.2°C 87% 3.5 mph SW5.6 kmh SW 3.5 mph5.6 kmh 29.96 in1014.6 mb - 0.00 in0.0 mm 0.01 in0.3 mm
01:40 AM 67.3°F19.6°C 63.3°F17.4°C 87% 1.1 mph SW1.8 kmh SW 2.3 mph3.7 kmh 29.96 in1014.6 mb - 0.00 in0.0 mm 0.01 in0.3 mm
01:30 AM 67.4°F19.7°C 63.1°F17.3°C 86% 1.1 mph SW1.8 kmh SW 1.1 mph1.8 kmh 29.96 in1014.6 mb - 0.00 in0.0 mm 0.01 in0.3 mm
01:20 AM 67.5°F19.7°C 62.9°F17.2°C 85% Calm Calm -- 29.97 in1014.9 mb - 0.00 in0.0 mm 0.01 in0.3 mm
01:10 AM 67.8°F19.9°C 62.7°F17.1°C 84% Calm Calm -- 29.97 in1014.9 mb - 0.00 in0.0 mm 0.01 in0.3 mm
01:00 AM 68.2°F20.1°C 63.2°F17.3°C 84% 2.3 mph SW3.7 kmh SW 4.6 mph7.4 kmh 29.98 in1015.2 mb - 0.00 in0.0 mm 0.01 in0.3 mm
12:50 AM 68.6°F20.3°C 63.3°F17.4°C 83% 4.6 mph SW7.4 kmh SW 4.6 mph7.4 kmh 29.97 in1014.9 mb - 0.00 in0.0 mm 0.01 in0.3 mm
12:40 AM 69.1°F20.6°C 63.4°F17.4°C 82% 1.1 mph WNW1.8 kmh WNW 2.3 mph3.7 kmh 29.97 in1014.9 mb - 0.01 in0.3 mm 0.01 in0.3 mm
12:30 AM 69.2°F20.7°C 62.4°F16.9°C 79% 1.1 mph NE1.8 kmh NE 3.5 mph5.6 kmh 29.97 in1014.9 mb - 0.00 in0.0 mm 0.00 in0.0 mm
12:20 AM 69.6°F20.9°C 62.8°F17.1°C 79% 2.3 mph SW3.7 kmh SW 3.5 mph5.6 kmh 29.98 in1015.2 mb - 0.00 in0.0 mm 0.00 in0.0 mm
12:10 AM 69.9°F21.1°C 63.1°F17.3°C 79% 1.1 mph SW1.8 kmh SW 2.3 mph3.7 kmh 29.99 in1015.6 mb - 0.00 in0.0 mm 0.00 in0.0 mm
12:00 AM 70.4°F21.3°C 63.2°F17.3°C 78% Calm Calm -- 29.98 in1015.2 mb - 0.00 in0.0 mm 0.00 in0.0 mm